Time;durP1;ratioP1;P1;durP2;ratioP2;P2;SDS_P1;SDS_P2;PMS_P1;PMS_P2;Temp;Humidity;BMP_temperature;BMP_pressure;BME280_temperature;BME280_humidity;BME280_pressure;Samples;Min_cycle;Max_cycle;Signal;HPM_P1;HPM_P2
2023/09/14 00:01:27;;;;;;;7.28;6.60;;;16.00;99.90;;;;;;5165221;28;20023;-75
2023/09/14 00:03:58;;;;;;;7.38;6.70;;;15.90;99.90;;;;;;5166337;28;20034;-75
2023/09/14 00:06:29;;;;;;;7.72;7.00;;;15.70;99.90;;;;;;5166400;28;20069;-75
2023/09/14 00:09:00;;;;;;;6.95;6.45;;;15.60;99.90;;;;;;5166769;28;20084;-75
2023/09/14 00:11:31;;;;;;;8.18;7.45;;;15.70;99.90;;;;;;5166486;28;20077;-75
2023/09/14 00:14:02;;;;;;;8.50;7.80;;;15.50;99.90;;;;;;5166394;28;20378;-75
2023/09/14 00:16:32;;;;;;;7.97;7.28;;;15.50;99.90;;;;;;5166172;28;20037;-76
2023/09/14 00:19:03;;;;;;;8.75;8.05;;;15.50;99.90;;;;;;5165137;28;20022;-75
2023/09/14 00:21:34;;;;;;;8.57;7.97;;;15.30;99.90;;;;;;5166280;28;20053;-76
2023/09/14 00:24:05;;;;;;;8.25;7.65;;;15.50;99.90;;;;;;5166236;28;20102;-75
2023/09/14 00:26:42;;;;;;;9.23;8.52;;;15.30;99.90;;;;;;5166551;28;20114;-75
2023/09/14 00:29:13;;;;;;;9.15;8.25;;;15.40;99.90;;;;;;5166333;28;20031;-76
2023/09/14 00:31:44;;;;;;;8.48;7.78;;;15.30;99.90;;;;;;5166363;28;20382;-76
2023/09/14 00:34:15;;;;;;;9.20;8.50;;;15.40;99.90;;;;;;5166383;28;20426;-76
2023/09/14 00:36:46;;;;;;;8.80;7.95;;;15.50;99.90;;;;;;5168755;28;20038;-77
2023/09/14 00:39:16;;;;;;;9.30;8.70;;;15.70;99.90;;;;;;5169916;28;20085;-75
2023/09/14 00:41:47;;;;;;;8.90;8.18;;;15.60;99.90;;;;;;5170070;28;20172;-75
2023/09/14 00:44:18;;;;;;;8.73;8.05;;;15.70;99.90;;;;;;5168676;28;20046;-75
2023/09/14 00:46:49;;;;;;;9.13;8.30;;;15.30;99.90;;;;;;5170795;28;20034;-75
2023/09/14 00:49:20;;;;;;;8.20;7.60;;;15.20;99.90;;;;;;5170447;28;20061;-76
2023/09/14 00:51:51;;;;;;;8.77;8.18;;;14.90;99.90;;;;;;5170483;28;20030;-75
2023/09/14 00:54:23;;;;;;;7.78;7.18;;;14.90;99.90;;;;;;5170388;28;20049;-76
2023/09/14 00:56:53;;;;;;;9.48;7.32;;;15.00;99.90;;;;;;5168711;28;20022;-75
2023/09/14 00:59:26;;;;;;;8.95;8.25;;;15.10;99.90;;;;;;5169837;28;20391;-75
2023/09/14 01:01:57;;;;;;;8.68;7.95;;;15.30;99.90;;;;;;5169850;28;20027;-75
2023/09/14 01:04:29;;;;;;;9.98;9.27;;;15.20;99.90;;;;;;5168287;28;20037;-75
2023/09/14 01:07:00;;;;;;;8.50;7.90;;;15.30;99.90;;;;;;5169624;28;20053;-75
2023/09/14 01:09:34;;;;;;;9.07;8.32;;;15.20;99.90;;;;;;5169736;28;20031;-75
2023/09/14 01:12:09;;;;;;;9.38;8.68;;;15.00;99.90;;;;;;5169280;28;20108;-75
2023/09/14 01:15:05;;;;;;;8.32;7.72;;;14.90;99.90;;;;;;5169316;28;20030;-75
2023/09/14 01:17:36;;;;;;;8.90;8.30;;;14.90;99.90;;;;;;5169248;28;20027;-75
2023/09/14 01:20:37;;;;;;;8.10;7.47;;;15.10;99.90;;;;;;5169479;28;20080;-75
2023/09/14 01:23:30;;;;;;;8.30;7.60;;;15.20;99.90;;;;;;5170021;28;20030;-76
2023/09/14 01:26:01;;;;;;;7.57;6.85;;;15.30;99.90;;;;;;5168476;28;20033;-76
2023/09/14 01:28:32;;;;;;;8.00;7.38;;;15.50;99.90;;;;;;5167993;28;20030;-75
2023/09/14 01:31:03;;;;;;;8.23;7.43;;;15.10;99.90;;;;;;5169347;28;20027;-76
2023/09/14 01:33:35;;;;;;;8.38;7.65;;;15.30;99.90;;;;;;5168008;28;20117;-75
2023/09/14 01:36:13;;;;;;;7.28;6.65;;;15.10;99.90;;;;;;5169261;28;20026;-76
2023/09/14 01:38:45;;;;;;;7.35;6.75;;;14.80;99.90;;;;;;5168962;28;20137;-76
2023/09/14 01:41:17;;;;;;;8.38;7.57;;;14.70;99.90;;;;;;5167841;28;20068;-75
2023/09/14 01:43:52;;;;;;;7.90;7.30;;;15.00;99.90;;;;;;5168733;28;20038;-75
2023/09/14 01:46:24;;;;;;;8.52;7.80;;;15.00;99.90;;;;;;5166954;28;20030;-75
2023/09/14 01:48:55;;;;;;;8.95;8.25;;;15.00;99.90;;;;;;5169035;28;20034;-76
2023/09/14 01:51:26;;;;;;;8.25;7.50;;;14.80;99.90;;;;;;5169043;28;20382;-76
2023/09/14 01:53:56;;;;;;;8.90;8.00;;;14.90;99.90;;;;;;5168891;28;20026;-75
2023/09/14 01:56:27;;;;;;;8.98;8.35;;;14.70;99.90;;;;;;5167338;28;20037;-75
2023/09/14 01:58:58;;;;;;;7.60;6.97;;;14.70;99.90;;;;;;5168795;28;20026;-75
2023/09/14 02:01:29;;;;;;;7.32;6.72;;;14.80;99.90;;;;;;5167494;28;20037;-75
2023/09/14 02:04:00;;;;;;;7.32;6.43;;;14.80;99.90;;;;;;5167104;28;20034;-75
2023/09/14 02:06:31;;;;;;;6.97;6.28;;;14.90;99.90;;;;;;5167204;28;20030;-75
2023/09/14 02:09:03;;;;;;;7.63;6.65;;;14.90;99.90;;;;;;5167300;28;20034;-75
2023/09/14 02:11:33;;;;;;;6.85;6.25;;;14.80;99.90;;;;;;5168573;28;20034;-75
2023/09/14 02:14:04;;;;;;;6.72;6.13;;;14.90;99.90;;;;;;5168129;28;20026;-75
2023/09/14 02:16:35;;;;;;;7.10;6.60;;;14.90;99.90;;;;;;5168059;28;20118;-75
2023/09/14 02:19:06;;;;;;;8.10;7.30;;;14.80;99.90;;;;;;5167147;28;20026;-76
2023/09/14 02:21:37;;;;;;;7.18;6.57;;;15.00;99.90;;;;;;5167056;28;20118;-75
2023/09/14 02:24:08;;;;;;;7.03;6.47;;;14.50;99.90;;;;;;5167919;28;20034;-75
2023/09/14 02:26:39;;;;;;;7.00;6.40;;;14.80;99.90;;;;;;5166967;28;20037;-76
2023/09/14 02:29:09;;;;;;;8.00;7.28;;;14.60;99.90;;;;;;5168252;28;20018;-75
2023/09/14 02:31:40;;;;;;;7.45;6.78;;;14.60;99.90;;;;;;5166883;28;20057;-76
2023/09/14 02:34:11;;;;;;;7.95;7.18;;;14.70;99.90;;;;;;5166749;28;20022;-75
2023/09/14 02:36:42;;;;;;;7.55;6.80;;;14.60;99.90;;;;;;5166682;28;20732;-76
2023/09/14 02:39:13;;;;;;;7.88;7.10;;;14.70;99.90;;;;;;5167838;28;20050;-75
2023/09/14 02:41:44;;;;;;;8.43;7.82;;;15.00;99.90;;;;;;5166857;28;20026;-76
2023/09/14 02:44:15;;;;;;;8.65;7.78;;;14.70;99.90;;;;;;5167894;28;20116;-76
2023/09/14 02:46:46;;;;;;;7.63;6.95;;;14.30;99.90;;;;;;5168118;28;20276;-76
2023/09/14 02:49:17;;;;;;;7.70;7.00;;;14.10;99.90;;;;;;5166752;28;20031;-75
2023/09/14 02:51:48;;;;;;;7.65;6.78;;;14.20;99.90;;;;;;5167684;28;20026;-76
2023/09/14 02:54:19;;;;;;;9.65;7.68;;;14.20;99.90;;;;;;5167302;28;20046;-76
2023/09/14 02:56:50;;;;;;;8.15;7.55;;;14.20;99.90;;;;;;5167843;28;20018;-75
2023/09/14 02:59:21;;;;;;;7.90;7.28;;;14.20;99.90;;;;;;5167619;28;20385;-75
2023/09/14 03:01:52;;;;;;;9.15;8.27;;;14.10;99.90;;;;;;5167653;28;20023;-76
2023/09/14 03:04:23;;;;;;;8.27;7.57;;;14.10;99.90;;;;;;5167528;28;20481;-75
2023/09/14 03:06:55;;;;;;;9.20;8.27;;;13.90;99.90;;;;;;5166035;28;20022;-76
2023/09/14 03:09:26;;;;;;;7.43;6.93;;;13.90;99.90;;;;;;5167411;28;20129;-75
2023/09/14 03:11:57;;;;;;;7.97;7.38;;;14.20;99.90;;;;;;5167409;28;20538;-76
2023/09/14 03:14:28;;;;;;;7.45;6.93;;;14.20;99.90;;;;;;5165953;28;20081;-76
2023/09/14 03:16:59;;;;;;;7.85;7.15;;;14.30;99.90;;;;;;5167317;28;20496;-75
2023/09/14 03:19:30;;;;;;;7.82;6.28;;;14.40;99.90;;;;;;5167138;28;20026;-76
2023/09/14 03:22:00;;;;;;;7.15;6.55;;;14.40;99.90;;;;;;5166954;28;20026;-76
2023/09/14 03:24:31;;;;;;;7.07;6.47;;;14.40;99.90;;;;;;5165792;28;20046;-76
2023/09/14 03:27:02;;;;;;;7.30;6.60;;;14.40;99.90;;;;;;5167237;28;20054;-76
2023/09/14 03:29:33;;;;;;;9.48;6.70;;;14.30;99.90;;;;;;5167057;28;20027;-76
2023/09/14 03:32:04;;;;;;;7.47;6.78;;;14.50;99.90;;;;;;5167108;28;20085;-76
2023/09/14 03:34:35;;;;;;;7.15;6.55;;;14.10;99.90;;;;;;5166778;28;20101;-77
2023/09/14 03:37:06;;;;;;;7.13;6.38;;;14.40;99.90;;;;;;5165950;28;20117;-76
2023/09/14 03:39:37;;;;;;;7.32;6.63;;;14.30;99.90;;;;;;5166573;28;20054;-75
2023/09/14 03:42:10;;;;;;;7.53;6.90;;;14.20;99.90;;;;;;5165472;28;20037;-77
2023/09/14 03:44:41;;;;;;;8.70;7.93;;;14.30;99.90;;;;;;5165586;28;20085;-75
2023/09/14 03:47:12;;;;;;;7.10;6.40;;;14.30;99.90;;;;;;5165396;28;20470;-75
2023/09/14 03:49:43;;;;;;;10.20;6.82;;;14.20;99.90;;;;;;5165514;28;20081;-76
2023/09/14 03:52:13;;;;;;;7.50;6.75;;;14.20;99.90;;;;;;5167120;28;20027;-74
2023/09/14 03:54:45;;;;;;;7.75;7.05;;;14.00;99.90;;;;;;5165362;28;20030;-75
2023/09/14 03:57:16;;;;;;;7.72;7.03;;;14.10;99.90;;;;;;5166610;28;20110;-76
2023/09/14 03:59:47;;;;;;;9.77;6.38;;;14.20;99.90;;;;;;5166330;28;20066;-75
2023/09/14 04:02:18;;;;;;;9.23;7.00;;;14.30;99.90;;;;;;5165253;28;20512;-76
2023/09/14 04:04:49;;;;;;;8.50;7.72;;;14.20;99.90;;;;;;5166393;28;20114;-76
2023/09/14 04:07:20;;;;;;;7.68;7.00;;;14.20;99.90;;;;;;5166396;28;20677;-76
2023/09/14 04:09:51;;;;;;;7.85;7.20;;;14.30;99.90;;;;;;5166099;28;20391;-76
2023/09/14 04:12:22;;;;;;;8.13;7.43;;;14.30;99.90;;;;;;5165108;28;20115;-75
2023/09/14 04:14:52;;;;;;;8.38;7.45;;;14.50;99.90;;;;;;5165117;28;20034;-75
2023/09/14 04:17:23;;;;;;;7.40;6.80;;;14.50;99.90;;;;;;5164854;28;20022;-75
2023/09/14 04:19:54;;;;;;;8.10;7.30;;;14.30;99.90;;;;;;5165130;28;20030;-75
2023/09/14 04:22:25;;;;;;;10.60;8.10;;;14.20;99.90;;;;;;5164936;28;20061;-75
2023/09/14 04:24:56;;;;;;;8.32;7.65;;;14.20;99.90;;;;;;5164897;28;20034;-75
2023/09/14 04:27:27;;;;;;;9.20;7.32;;;14.50;99.90;;;;;;5164787;28;20540;-75
2023/09/14 04:29:58;;;;;;;9.73;8.20;;;14.50;99.90;;;;;;5164159;28;20034;-75
2023/09/14 04:32:28;;;;;;;9.13;8.32;;;14.50;99.90;;;;;;5162915;28;20109;-75
2023/09/14 04:34:59;;;;;;;10.45;8.30;;;14.60;99.90;;;;;;5165455;28;20030;-75
2023/09/14 04:37:30;;;;;;;7.68;7.07;;;14.80;99.90;;;;;;5164692;28;20056;-75
2023/09/14 04:40:01;;;;;;;8.55;7.60;;;15.10;99.90;;;;;;5165164;28;20181;-75
2023/09/14 04:42:32;;;;;;;8.15;7.40;;;14.90;99.90;;;;;;5184349;28;20028;-76
2023/09/14 04:45:03;;;;;;;8.35;7.50;;;14.90;99.90;;;;;;5184597;28;20049;-75
2023/09/14 04:47:34;;;;;;;7.85;7.05;;;14.90;99.90;;;;;;5185183;28;20489;-76
2023/09/14 04:50:06;;;;;;;9.07;8.27;;;15.20;99.90;;;;;;5186137;28;20120;-75
2023/09/14 04:52:37;;;;;;;11.93;8.45;;;15.20;99.90;;;;;;5185095;28;20030;-76
2023/09/14 04:55:09;;;;;;;9.02;8.23;;;15.30;99.90;;;;;;5185025;28;20033;-75
2023/09/14 04:57:40;;;;;;;8.70;7.90;;;15.10;99.90;;;;;;5186296;28;20763;-76
2023/09/14 05:00:14;;;;;;;8.82;7.95;;;15.20;99.90;;;;;;5168362;28;20027;-76
2023/09/14 05:02:45;;;;;;;8.60;7.80;;;15.20;99.90;;;;;;5164629;28;20027;-75
2023/09/14 05:05:16;;;;;;;10.18;9.13;;;15.50;99.90;;;;;;5164127;28;20123;-75
2023/09/14 05:07:47;;;;;;;9.73;8.63;;;15.60;99.90;;;;;;5165804;28;20045;-75
2023/09/14 05:10:18;;;;;;;9.07;8.35;;;15.80;99.90;;;;;;5165927;28;20026;-75
2023/09/14 05:12:49;;;;;;;9.05;8.32;;;15.70;99.90;;;;;;5164528;28;20023;-76
2023/09/14 05:15:20;;;;;;;9.02;8.32;;;15.90;99.90;;;;;;5165362;28;20037;-76
2023/09/14 05:17:50;;;;;;;9.50;8.70;;;16.00;99.90;;;;;;5164192;28;20032;-78
2023/09/14 05:20:22;;;;;;;11.40;8.98;;;16.00;99.90;;;;;;5164224;28;20035;-77
2023/09/14 05:22:52;;;;;;;10.43;9.52;;;16.40;99.90;;;;;;5166739;28;20038;-79
2023/09/14 05:25:25;;;;;;;8.70;7.75;;;16.70;99.90;;;;;;5168231;28;20173;-78
2023/09/14 05:27:57;;;;;;;8.77;7.93;;;16.40;99.90;;;;;;5167957;28;20513;-79
2023/09/14 05:30:28;;;;;;;8.88;8.23;;;16.40;99.90;;;;;;5168024;28;20037;-79
2023/09/14 05:32:59;;;;;;;8.60;7.88;;;16.60;99.90;;;;;;5185509;28;20029;-79
2023/09/14 05:35:30;;;;;;;8.98;8.13;;;16.70;99.90;;;;;;5189452;28;20025;-79
2023/09/14 05:38:01;;;;;;;9.35;8.43;;;16.60;99.90;;;;;;5189072;28;20054;-78
2023/09/14 05:40:32;;;;;;;9.68;8.75;;;16.70;99.90;;;;;;5189281;28;20030;-78
2023/09/14 05:43:03;;;;;;;9.25;8.43;;;16.90;99.90;;;;;;5187781;28;20032;-78
2023/09/14 05:45:34;;;;;;;8.48;7.78;;;17.20;99.90;;;;;;5189257;28;20017;-79
2023/09/14 05:48:05;;;;;;;9.25;8.27;;;17.20;99.90;;;;;;5187514;28;20029;-79
2023/09/14 05:50:36;;;;;;;9.15;8.40;;;17.30;99.90;;;;;;5189279;28;20032;-79
2023/09/14 05:53:07;;;;;;;9.63;8.75;;;17.40;99.90;;;;;;5189099;28;20018;-79
2023/09/14 05:55:38;;;;;;;10.60;8.30;;;17.60;99.90;;;;;;5187868;28;20025;-79
2023/09/14 05:58:09;;;;;;;10.05;9.10;;;17.50;99.90;;;;;;5187821;28;20028;-78
2023/09/14 06:00:40;;;;;;;9.88;9.07;;;17.60;99.90;;;;;;5187818;28;20496;-78
2023/09/14 06:03:11;;;;;;;10.10;9.30;;;17.90;99.90;;;;;;5187376;28;20112;-78
2023/09/14 06:05:41;;;;;;;9.77;8.82;;;18.10;99.90;;;;;;5188488;28;20234;-79
2023/09/14 06:08:12;;;;;;;9.45;8.65;;;18.30;99.90;;;;;;5188841;28;20052;-79
2023/09/14 06:10:43;;;;;;;9.25;8.45;;;18.50;99.90;;;;;;5188895;28;20393;-79
2023/09/14 06:13:16;;;;;;;9.65;8.85;;;18.30;99.90;;;;;;5187277;28;20040;-77
2023/09/14 06:15:47;;;;;;;9.05;8.30;;;18.50;99.90;;;;;;5188868;28;20029;-78
2023/09/14 06:18:18;;;;;;;9.45;8.02;;;18.80;99.90;;;;;;5188752;28;20495;-79
2023/09/14 06:20:49;;;;;;;9.35;8.55;;;19.10;99.90;;;;;;5187051;28;20026;-79
2023/09/14 06:23:20;;;;;;;8.48;7.82;;;19.00;99.90;;;;;;5177758;28;20066;-79
2023/09/14 06:25:52;;;;;;;8.95;8.23;;;19.30;99.90;;;;;;5174169;28;20057;-79
2023/09/14 06:28:23;;;;;;;8.75;7.55;;;19.30;99.90;;;;;;5182757;28;20413;-79
2023/09/14 06:30:55;;;;;;;9.00;8.13;;;19.50;99.90;;;;;;5170401;28;20035;-79
2023/09/14 06:33:26;;;;;;;9.32;8.43;;;19.60;99.90;;;;;;5171335;28;20049;-79
2023/09/14 06:35:57;;;;;;;9.45;8.57;;;19.80;99.90;;;;;;5166427;28;20057;-79
2023/09/14 06:38:28;;;;;;;9.68;8.77;;;20.00;99.90;;;;;;5178902;28;20058;-79
2023/09/14 06:40:59;;;;;;;9.82;8.93;;;20.30;99.90;;;;;;5184479;28;20117;-79
2023/09/14 06:43:30;;;;;;;9.18;7.80;;;20.40;99.90;;;;;;5165992;28;20034;-79
2023/09/14 06:46:01;;;;;;;11.20;10.05;;;20.50;99.90;;;;;;5174194;28;20532;-80
2023/09/14 06:48:32;;;;;;;11.20;10.15;;;20.80;99.90;;;;;;5167487;28;20040;-79
2023/09/14 06:51:03;;;;;;;10.68;9.73;;;21.10;99.90;;;;;;5166269;28;20027;-79
2023/09/14 06:53:34;;;;;;;10.90;9.70;;;21.30;99.90;;;;;;5167700;28;20018;-77
2023/09/14 06:56:13;;;;;;;12.60;10.48;;;21.30;99.90;;;;;;5167914;28;20026;-78
2023/09/14 06:58:44;;;;;;;14.32;10.88;;;21.60;99.90;;;;;;5181269;28;20040;-76
2023/09/14 07:01:15;;;;;;;12.38;11.20;;;21.70;99.90;;;;;;5186329;28;20116;-78
2023/09/14 07:03:45;;;;;;;11.48;10.52;;;21.90;99.90;;;;;;5187359;28;20038;-77
2023/09/14 07:06:16;;;;;;;14.65;11.05;;;22.10;99.90;;;;;;5187398;28;20026;-78
2023/09/14 07:08:48;;;;;;;13.35;12.15;;;22.30;99.90;;;;;;5185864;28;20437;-78
2023/09/14 07:11:19;;;;;;;13.00;11.15;;;22.40;99.90;;;;;;5187644;28;20025;-78
2023/09/14 07:13:50;;;;;;;11.32;10.27;;;22.60;99.90;;;;;;5186339;28;20022;-78
2023/09/14 07:16:22;;;;;;;8.65;7.78;;;22.70;99.90;;;;;;5186366;28;20030;-77
2023/09/14 07:18:53;;;;;;;8.63;7.82;;;22.80;99.90;;;;;;5171161;28;20493;-77
2023/09/14 07:21:23;;;;;;;12.02;8.15;;;22.90;99.90;;;;;;5167219;28;20030;-77
2023/09/14 07:23:54;;;;;;;9.43;8.43;;;23.00;99.90;;;;;;5167287;28;20035;-78
2023/09/14 07:26:25;;;;;;;9.05;8.25;;;23.20;99.90;;;;;;5167209;28;20023;-77
2023/09/14 07:28:56;;;;;;;11.98;9.88;;;23.30;99.90;;;;;;5167042;28;20030;-77
2023/09/14 07:31:27;;;;;;;11.45;10.25;;;23.40;99.90;;;;;;5166781;28;20038;-78
2023/09/14 07:33:58;;;;;;;10.52;9.73;;;23.50;99.90;;;;;;5180058;28;20025;-78
2023/09/14 07:36:29;;;;;;;11.38;10.40;;;23.70;99.90;;;;;;5187203;28;20027;-77
2023/09/14 07:39:00;;;;;;;13.65;10.85;;;23.60;99.90;;;;;;5185766;28;20423;-78
2023/09/14 07:41:31;;;;;;;10.25;9.25;;;23.90;99.90;;;;;;5185935;28;20026;-78
2023/09/14 07:44:02;;;;;;;9.50;8.52;;;24.00;99.90;;;;;;5185337;28;20034;-77
2023/09/14 07:46:33;;;;;;;9.18;8.30;;;24.00;99.90;;;;;;5172641;28;20037;-77
2023/09/14 07:49:04;;;;;;;8.88;8.10;;;24.10;99.90;;;;;;5165420;28;20062;-77
2023/09/14 07:51:35;;;;;;;8.27;7.47;;;24.20;99.90;;;;;;5165813;28;20035;-78
2023/09/14 08:07:33;;;;;;;10.95;9.95;;;24.10;99.90;;;;;;5287082;27;20478;-76
2023/09/14 08:10:04;;;;;;;9.60;8.80;;;25.00;99.90;;;;;;5270354;28;20028;-80
2023/09/14 08:12:38;;;;;;;9.93;9.00;;;24.90;99.90;;;;;;5275262;28;20089;-76
2023/09/14 08:15:09;;;;;;;8.85;7.97;;;25.10;99.90;;;;;;5276776;28;20024;-76
2023/09/14 08:17:40;;;;;;;10.00;9.00;;;25.10;99.90;;;;;;5285424;28;20030;-74
2023/09/14 08:20:11;;;;;;;11.35;9.25;;;25.30;99.90;;;;;;5286525;28;20024;-76
2023/09/14 08:22:42;;;;;;;9.48;8.57;;;25.40;99.90;;;;;;5272055;28;20028;-76
2023/09/14 08:25:15;;;;;;;8.93;7.85;;;25.50;99.90;;;;;;5264350;28;20020;-75
2023/09/14 08:27:46;;;;;;;9.40;8.50;;;25.50;99.90;;;;;;5247992;28;20021;-76
2023/09/14 08:30:17;;;;;;;12.63;9.25;;;25.60;99.90;;;;;;5243547;28;20047;-77
2023/09/14 08:32:47;;;;;;;12.45;10.32;;;25.80;99.90;;;;;;5243214;28;20475;-75
2023/09/14 08:35:23;;;;;;;11.80;10.80;;;25.60;99.90;;;;;;5244339;28;20061;-79
2023/09/14 08:37:55;;;;;;;10.43;9.63;;;25.80;99.90;;;;;;5244438;28;20033;-77
2023/09/14 08:40:26;;;;;;;10.57;9.75;;;25.90;99.90;;;;;;5244536;28;20039;-76
2023/09/14 08:42:59;;;;;;;10.63;9.60;;;26.00;99.90;;;;;;5244313;28;20033;-76
2023/09/14 08:45:31;;;;;;;8.32;7.60;;;26.10;99.90;;;;;;5244465;28;20016;-77
2023/09/14 08:48:04;;;;;;;9.65;7.28;;;25.90;99.90;;;;;;5244501;28;20029;-76
2023/09/14 08:50:36;;;;;;;7.95;7.25;;;26.20;99.90;;;;;;5243132;28;20079;-76
2023/09/14 08:53:10;;;;;;;9.15;8.30;;;26.20;99.90;;;;;;5243327;28;20425;-75
2023/09/14 08:55:43;;;;;;;10.30;7.38;;;26.20;99.90;;;;;;5244396;28;20044;-77
2023/09/14 08:58:15;;;;;;;8.57;7.75;;;26.40;99.90;;;;;;5242770;28;20024;-76
2023/09/14 09:00:47;;;;;;;12.18;8.55;;;26.60;99.90;;;;;;5242737;28;20025;-76
2023/09/14 09:03:19;;;;;;;9.15;8.55;;;26.60;99.90;;;;;;5244034;28;20012;-76
2023/09/14 09:05:50;;;;;;;10.38;9.40;;;26.60;99.90;;;;;;5243389;28;20106;-76
2023/09/14 09:08:26;;;;;;;12.25;11.45;;;26.70;99.90;;;;;;5229704;28;20029;-77
2023/09/14 09:10:57;;;;;;;13.98;12.43;;;26.80;99.90;;;;;;5230181;28;20025;-76
2023/09/14 09:13:41;;;;;;;12.02;10.85;;;26.90;99.90;;;;;;5233994;28;20028;-77
2023/09/14 09:16:12;;;;;;;13.18;11.85;;;26.90;99.90;;;;;;5250423;28;20086;-76
2023/09/14 09:19:07;;;;;;;14.20;13.00;;;27.10;99.90;;;;;;5249258;28;20028;-76
2023/09/14 09:21:41;;;;;;;12.27;11.25;;;27.10;99.90;;;;;;5248817;28;20033;-75
2023/09/14 09:24:15;;;;;;;12.00;10.93;;;26.80;99.90;;;;;;5250713;28;20039;-76
2023/09/14 09:26:46;;;;;;;9.38;8.68;;;27.10;99.90;;;;;;5251303;28;20017;-77
2023/09/14 09:29:19;;;;;;;9.90;9.13;;;27.30;99.90;;;;;;5250358;28;20476;-77
2023/09/14 09:31:50;;;;;;;8.18;7.38;;;27.20;99.90;;;;;;5249120;28;20040;-76
2023/09/14 09:34:25;;;;;;;10.80;8.43;;;27.30;99.90;;;;;;5250842;28;20016;-76
2023/09/14 09:36:56;;;;;;;10.27;9.52;;;27.40;99.90;;;;;;5250028;28;20045;-76
2023/09/14 09:39:27;;;;;;;11.93;11.13;;;27.50;99.90;;;;;;5249305;28;20067;-76
2023/09/14 09:41:58;;;;;;;16.38;15.27;;;27.50;99.90;;;;;;5234086;28;20045;-76
2023/09/14 09:44:29;;;;;;;19.40;18.10;;;27.50;99.90;;;;;;5229165;28;20526;-75
2023/09/14 09:47:01;;;;;;;14.05;12.90;;;27.60;99.90;;;;;;5246369;28;20039;-75
2023/09/14 09:49:33;;;;;;;15.32;14.35;;;27.20;99.90;;;;;;5249979;28;20046;-76
2023/09/14 09:52:04;;;;;;;16.48;15.27;;;27.50;99.90;;;;;;5242829;28;20028;-75
2023/09/14 09:54:35;;;;;;;13.13;12.15;;;27.60;99.90;;;;;;5229304;28;20526;-76
2023/09/14 09:57:07;;;;;;;11.60;10.48;;;27.30;99.90;;;;;;5229365;28;20458;-76
2023/09/14 09:59:40;;;;;;;8.88;8.27;;;27.40;99.90;;;;;;5229304;28;20021;-76
2023/09/14 10:02:11;;;;;;;10.88;9.93;;;27.40;99.90;;;;;;5243015;28;20024;-75
2023/09/14 10:04:54;;;;;;;11.90;11.00;;;27.70;99.90;;;;;;5248471;28;20025;-75
2023/09/14 10:07:25;;;;;;;12.57;11.68;;;27.90;99.90;;;;;;5248152;28;20048;-76
2023/09/14 10:09:56;;;;;;;10.95;10.25;;;28.00;99.90;;;;;;5249218;28;20021;-76
2023/09/14 10:12:31;;;;;;;9.63;8.82;;;28.10;99.90;;;;;;5248828;28;20234;-76
2023/09/14 10:15:04;;;;;;;7.80;7.10;;;28.10;99.90;;;;;;5248460;28;20044;-76
2023/09/14 10:17:36;;;;;;;7.40;6.90;;;28.10;99.90;;;;;;5248527;28;20028;-77
2023/09/14 10:20:11;;;;;;;8.75;7.95;;;28.30;99.90;;;;;;5247810;28;20040;-76
2023/09/14 10:22:43;;;;;;;9.63;8.75;;;28.00;99.90;;;;;;5248511;28;20078;-76
2023/09/14 10:25:18;;;;;;;9.55;8.57;;;27.90;99.90;;;;;;5247737;28;20090;-75
2023/09/14 10:27:49;;;;;;;10.30;9.57;;;28.10;99.90;;;;;;5249217;28;20028;-76
2023/09/14 10:30:21;;;;;;;9.18;8.52;;;28.10;99.90;;;;;;5249191;28;20020;-77
2023/09/14 10:32:53;;;;;;;8.38;7.68;;;28.20;99.90;;;;;;5249064;28;20041;-77
2023/09/14 10:35:24;;;;;;;8.73;7.90;;;28.10;99.90;;;;;;5247435;28;20365;-76
2023/09/14 10:37:59;;;;;;;9.57;8.85;;;28.10;99.90;;;;;;5247673;28;20031;-76
2023/09/14 10:40:30;;;;;;;9.27;8.60;;;28.10;99.90;;;;;;5238772;28;20455;-76
2023/09/14 10:43:01;;;;;;;9.50;8.63;;;28.10;99.90;;;;;;5238176;28;20055;-77
2023/09/14 10:45:36;;;;;;;8.63;7.93;;;28.20;99.90;;;;;;5232514;28;20024;-78
2023/09/14 10:48:11;;;;;;;11.70;10.65;;;28.20;99.90;;;;;;5225591;28;20049;-78
2023/09/14 10:50:42;;;;;;;10.45;9.43;;;27.80;99.90;;;;;;5227553;28;20412;-78
2023/09/14 10:53:14;;;;;;;9.82;9.10;;;28.20;99.90;;;;;;5226164;28;20074;-75
2023/09/14 10:55:45;;;;;;;10.38;9.68;;;28.20;99.90;;;;;;5227342;28;20055;-75
2023/09/14 10:58:17;;;;;;;10.18;9.27;;;28.30;99.90;;;;;;5226474;28;20021;-77
2023/09/14 11:00:57;;;;;;;10.10;9.13;;;28.40;99.90;;;;;;5228034;28;20079;-76
2023/09/14 11:04:06;;;;;;;9.13;8.45;;;28.40;99.90;;;;;;5227784;28;20021;-77
2023/09/14 11:06:41;;;;;;;;;;;28.60;99.90;;;;;;5227680;28;20424;-76
2023/09/14 11:09:14;;;;;;;8.52;7.82;;;28.70;99.90;;;;;;5226114;28;19954;-76
2023/09/14 11:11:46;;;;;;;7.10;6.50;;;28.70;99.90;;;;;;5227392;28;20096;-76
2023/09/14 11:14:18;;;;;;;9.05;8.18;;;28.70;99.90;;;;;;5227536;28;20032;-76
2023/09/14 11:16:57;;;;;;;7.55;6.78;;;28.70;99.90;;;;;;5227745;28;20037;-76
2023/09/14 11:19:31;;;;;;;7.53;7.00;;;28.80;99.90;;;;;;5226736;28;20068;-76
2023/09/14 11:22:13;;;;;;;7.70;7.00;;;28.70;99.90;;;;;;5226541;28;20033;-80
2023/09/14 11:24:45;;;;;;;7.22;6.72;;;28.90;99.90;;;;;;5226491;28;20021;-78
2023/09/14 11:27:17;;;;;;;8.05;7.35;;;28.40;99.90;;;;;;5227835;28;20108;-77
2023/09/14 11:29:48;;;;;;;9.23;8.38;;;28.80;99.90;;;;;;5226306;28;20075;-76
2023/09/14 11:32:22;;;;;;;8.00;7.43;;;29.00;99.90;;;;;;5227745;28;20033;-76
2023/09/14 11:34:57;;;;;;;7.47;6.40;;;28.80;99.90;;;;;;5226520;28;20033;-76
2023/09/14 11:37:29;;;;;;;6.93;6.32;;;28.40;99.90;;;;;;5226334;28;20041;-76
2023/09/14 11:40:01;;;;;;;6.22;5.82;;;28.80;99.90;;;;;;5227849;28;20498;-77
2023/09/14 11:43:38;;;;;;;51.42;7.80;;;28.10;99.90;;;;;;5227875;28;20415;-77
2023/09/14 11:46:04;;;;;;;6.60;6.05;;;28.50;99.90;;;;;;5226566;28;20472;-76
2023/09/14 11:48:39;;;;;;;6.90;6.30;;;28.80;99.90;;;;;;5227782;28;20029;-77
2023/09/14 11:51:10;;;;;;;7.53;6.95;;;28.80;99.90;;;;;;5227672;28;20416;-76
2023/09/14 11:53:41;;;;;;;9.65;6.13;;;28.40;99.90;;;;;;5227649;28;20475;-77
2023/09/14 11:56:17;;;;;;;8.57;5.35;;;28.50;99.90;;;;;;5227417;28;20029;-77
2023/09/14 11:58:48;;;;;;;7.32;6.68;;;28.10;99.90;;;;;;5227717;28;20044;-76
2023/09/14 12:01:20;;;;;;;7.18;6.47;;;28.70;99.90;;;;;;5227169;28;20091;-76
2023/09/14 12:03:50;;;;;;;7.03;6.10;;;28.90;99.90;;;;;;5226366;28;20049;-77
2023/09/14 12:06:22;;;;;;;7.68;6.53;;;28.90;99.90;;;;;;5227305;28;20088;-77
2023/09/14 12:08:53;;;;;;;6.70;5.22;;;29.00;99.90;;;;;;5226243;28;20029;-77
2023/09/14 12:11:38;;;;;;;6.30;5.80;;;28.90;99.90;;;;;;5227575;28;20083;-77
2023/09/14 12:14:09;;;;;;;6.60;6.00;;;29.10;99.90;;;;;;5226303;28;20033;-77
2023/09/14 12:16:39;;;;;;;6.18;5.68;;;28.90;99.90;;;;;;5227274;28;20373;-77
2023/09/14 12:19:13;;;;;;;5.32;4.82;;;29.10;99.90;;;;;;5225941;28;20071;-79
2023/09/14 12:21:44;;;;;;;8.07;5.10;;;28.90;99.90;;;;;;5227091;28;20047;-76
2023/09/14 12:24:15;;;;;;;6.35;5.57;;;28.80;99.90;;;;;;5227318;28;20104;-77
2023/09/14 12:26:46;;;;;;;5.18;4.75;;;29.10;99.90;;;;;;5227202;28;20021;-76
2023/09/14 12:29:17;;;;;;;5.57;4.90;;;29.20;99.90;;;;;;5226177;28;20040;-76
2023/09/14 12:31:48;;;;;;;6.55;5.85;;;28.90;99.90;;;;;;5226185;28;20056;-76
2023/09/14 12:34:19;;;;;;;7.32;5.70;;;29.00;99.90;;;;;;5225984;28;20055;-78
2023/09/14 12:36:50;;;;;;;25.52;6.25;;;28.60;99.90;;;;;;5226785;28;20095;-77
2023/09/14 12:39:21;;;;;;;8.50;7.20;;;28.80;99.90;;;;;;5225812;28;20056;-77
2023/09/14 12:41:53;;;;;;;10.38;5.75;;;29.00;99.90;;;;;;5227750;28;20033;-77
2023/09/14 12:44:24;;;;;;;8.05;6.80;;;28.90;99.90;;;;;;5229884;28;20526;-76
2023/09/14 12:46:55;;;;;;;9.95;6.00;;;28.90;99.90;;;;;;5230782;28;20029;-76
2023/09/14 12:49:26;;;;;;;6.57;6.05;;;28.60;99.90;;;;;;5231048;28;20497;-77
2023/09/14 12:51:57;;;;;;;7.95;5.25;;;28.90;99.90;;;;;;5230858;28;20083;-77
2023/09/14 12:54:28;;;;;;;6.88;6.18;;;28.90;99.90;;;;;;5229613;28;20721;-77
2023/09/14 12:57:08;;;;;;;6.70;5.60;;;29.00;99.90;;;;;;5230546;28;20044;-77
2023/09/14 12:59:58;;;;;;;7.75;7.20;;;28.80;99.90;;;;;;5230741;28;20063;-77
2023/09/14 13:02:33;;;;;;;7.13;6.22;;;28.90;99.90;;;;;;5230967;28;20039;-77
2023/09/14 13:05:06;;;;;;;7.68;7.07;;;28.80;99.90;;;;;;5229280;28;20040;-76
2023/09/14 13:07:37;;;;;;;8.90;8.07;;;28.70;99.90;;;;;;5230631;28;20033;-77
2023/09/14 13:10:10;;;;;;;7.45;6.75;;;28.80;99.90;;;;;;5229439;28;20033;-76
2023/09/14 13:13:10;;;;;;;7.35;6.40;;;28.80;99.90;;;;;;5230602;28;20104;-77
2023/09/14 13:15:45;;;;;;;7.10;6.43;;;28.80;99.90;;;;;;5231033;28;20043;-78
2023/09/14 13:18:19;;;;;;;8.23;7.25;;;28.80;99.90;;;;;;5230075;28;20063;-77
2023/09/14 13:20:52;;;;;;;6.70;5.97;;;28.80;99.90;;;;;;5230315;28;20353;-77
2023/09/14 13:23:23;;;;;;;9.48;6.97;;;28.60;99.90;;;;;;5230237;28;20025;-76